sensor_id;sensor_type;location;lat;lon;timestamp;pressure;altitude;pressure_sealevel;temperature;humidity
62800;BME280;48842;51.046;13.796;2024-03-06T00:00:31;100596.97;;;8.27;nan
62800;BME280;48842;51.046;13.796;2024-03-06T00:02:58;100596.06;;;8.26;nan
62800;BME280;48842;51.046;13.796;2024-03-06T00:05:23;100601.28;;;8.26;nan
62800;BME280;48842;51.046;13.796;2024-03-06T00:07:48;100599.53;;;8.24;nan
62800;BME280;48842;51.046;13.796;2024-03-06T00:10:14;100605.63;;;8.26;nan
62800;BME280;48842;51.046;13.796;2024-03-06T00:12:39;100597.84;;;8.27;nan
62800;BME280;48842;51.046;13.796;2024-03-06T00:15:05;100603.91;;;8.28;nan
62800;BME280;48842;51.046;13.796;2024-03-06T00:17:31;100611.75;;;8.28;nan
62800;BME280;48842;51.046;13.796;2024-03-06T00:19:56;100606.53;;;8.28;nan
62800;BME280;48842;51.046;13.796;2024-03-06T00:22:21;100606.53;;;8.28;nan
62800;BME280;48842;51.046;13.796;2024-03-06T00:24:47;100621.34;;;8.29;nan
62800;BME280;48842;51.046;13.796;2024-03-06T00:27:13;100613.56;;;8.32;nan
62800;BME280;48842;51.046;13.796;2024-03-06T00:29:38;100614.50;;;8.34;nan
62800;BME280;48842;51.046;13.796;2024-03-06T00:32:04;100610.16;;;8.36;nan
62800;BME280;48842;51.046;13.796;2024-03-06T00:34:29;100616.28;;;8.38;nan
62800;BME280;48842;51.046;13.796;2024-03-06T00:36:54;100612.00;;;8.40;nan
62800;BME280;48842;51.046;13.796;2024-03-06T00:39:20;100621.59;;;8.43;nan
62800;BME280;48842;51.046;13.796;2024-03-06T00:41:45;100617.31;;;8.45;nan
62800;BME280;48842;51.046;13.796;2024-03-06T00:44:10;100625.16;;;8.45;nan
62800;BME280;48842;51.046;13.796;2024-03-06T00:46:36;100625.16;;;8.46;nan
62800;BME280;48842;51.046;13.796;2024-03-06T00:49:01;100619.09;;;8.47;nan
62800;BME280;48842;51.046;13.796;2024-03-06T00:51:26;100624.28;;;8.44;nan
62800;BME280;48842;51.046;13.796;2024-03-06T00:53:52;100620.72;;;8.42;nan
62800;BME280;48842;51.046;13.796;2024-03-06T00:56:17;100623.22;;;8.36;nan
62800;BME280;48842;51.046;13.796;2024-03-06T00:58:42;100626.63;;;8.32;nan
62800;BME280;48842;51.046;13.796;2024-03-06T01:01:07;100631.72;;;8.24;nan
62800;BME280;48842;51.046;13.796;2024-03-06T01:03:33;100628.97;;;8.16;nan
62800;BME280;48842;51.046;13.796;2024-03-06T01:05:58;100634.00;;;8.07;nan
62800;BME280;48842;51.046;13.796;2024-03-06T01:08:23;100625.16;;;7.99;nan
62800;BME280;48842;51.046;13.796;2024-03-06T01:10:50;100633.72;;;7.92;nan
62800;BME280;48842;51.046;13.796;2024-03-06T01:13:16;100638.88;;;7.89;nan
62800;BME280;48842;51.046;13.796;2024-03-06T01:15:41;100638.78;;;7.85;nan
62800;BME280;48842;51.046;13.796;2024-03-06T01:18:06;100647.50;;;7.84;nan
62800;BME280;48842;51.046;13.796;2024-03-06T01:20:31;100640.50;;;7.83;nan
62800;BME280;48842;51.046;13.796;2024-03-06T01:22:57;100636.09;;;7.81;nan
62800;BME280;48842;51.046;13.796;2024-03-06T01:25:22;100643.88;;;7.79;nan
62800;BME280;48842;51.046;13.796;2024-03-06T01:27:48;100639.47;;;7.75;nan
62800;BME280;48842;51.046;13.796;2024-03-06T01:30:14;100642.88;;;7.71;nan
62800;BME280;48842;51.046;13.796;2024-03-06T01:32:39;100638.50;;;7.70;nan
62800;BME280;48842;51.046;13.796;2024-03-06T01:35:05;100642.78;;;7.68;nan
62800;BME280;48842;51.046;13.796;2024-03-06T01:37:30;100645.38;;;7.66;nan
62800;BME280;48842;51.046;13.796;2024-03-06T01:39:55;100644.47;;;7.64;nan
62800;BME280;48842;51.046;13.796;2024-03-06T01:42:21;100647.91;;;7.63;nan
62800;BME280;48842;51.046;13.796;2024-03-06T01:44:46;100645.28;;;7.62;nan
62800;BME280;48842;51.046;13.796;2024-03-06T01:47:11;100645.28;;;7.62;nan
62800;BME280;48842;51.046;13.796;2024-03-06T01:49:36;100647.81;;;7.59;nan
62800;BME280;48842;51.046;13.796;2024-03-06T01:52:02;100657.38;;;7.58;nan
62800;BME280;48842;51.046;13.796;2024-03-06T01:54:29;100662.56;;;7.57;nan
62800;BME280;48842;51.046;13.796;2024-03-06T01:56:56;100664.22;;;7.55;nan
62800;BME280;48842;51.046;13.796;2024-03-06T01:59:24;100651.19;;;7.55;nan
62800;BME280;48842;51.046;13.796;2024-03-06T02:01:52;100657.28;;;7.54;nan
62800;BME280;48842;51.046;13.796;2024-03-06T02:04:18;100662.44;;;7.50;nan
62800;BME280;48842;51.046;13.796;2024-03-06T02:06:44;100658.91;;;7.48;nan
62800;BME280;48842;51.046;13.796;2024-03-06T02:09:09;100656.25;;;7.47;nan
62800;BME280;48842;51.046;13.796;2024-03-06T02:11:36;100655.38;;;7.46;nan
62800;BME280;48842;51.046;13.796;2024-03-06T02:14:02;100661.44;;;7.45;nan
62800;BME280;48842;51.046;13.796;2024-03-06T02:16:28;100667.50;;;7.44;nan
62800;BME280;48842;51.046;13.796;2024-03-06T02:18:53;100663.19;;;7.45;nan
62800;BME280;48842;51.046;13.796;2024-03-06T02:21:21;100660.53;;;7.43;nan
62800;BME280;48842;51.046;13.796;2024-03-06T02:23:48;100654.44;;;7.43;nan
62800;BME280;48842;51.046;13.796;2024-03-06T02:26:14;100653.53;;;7.41;nan
62800;BME280;48842;51.046;13.796;2024-03-06T02:28:39;100660.44;;;7.40;nan
62800;BME280;48842;51.046;13.796;2024-03-06T02:31:04;100663.91;;;7.39;nan
62800;BME280;48842;51.046;13.796;2024-03-06T02:33:32;100652.56;;;7.37;nan
62800;BME280;48842;51.046;13.796;2024-03-06T02:35:59;100663.84;;;7.36;nan
62800;BME280;48842;51.046;13.796;2024-03-06T02:38:24;100662.03;;;7.32;nan
62800;BME280;48842;51.046;13.796;2024-03-06T02:40:50;100676.75;;;7.31;nan
62800;BME280;48842;51.046;13.796;2024-03-06T02:43:15;100674.13;;;7.30;nan
62800;BME280;48842;51.046;13.796;2024-03-06T02:45:41;100674.97;;;7.29;nan
62800;BME280;48842;51.046;13.796;2024-03-06T02:48:06;100685.38;;;7.27;nan
62800;BME280;48842;51.046;13.796;2024-03-06T02:50:32;100681.78;;;7.24;nan
62800;BME280;48842;51.046;13.796;2024-03-06T02:52:58;100694.75;;;7.21;nan
62800;BME280;48842;51.046;13.796;2024-03-06T02:55:24;100692.97;;;7.20;nan
62800;BME280;48842;51.046;13.796;2024-03-06T02:57:49;100697.28;;;7.18;nan
62800;BME280;48842;51.046;13.796;2024-03-06T03:00:15;100690.28;;;7.15;nan
62800;BME280;48842;51.046;13.796;2024-03-06T03:02:41;100688.50;;;7.14;nan
62800;BME280;48842;51.046;13.796;2024-03-06T03:05:07;100680.66;;;7.12;nan
62800;BME280;48842;51.046;13.796;2024-03-06T03:07:33;100680.66;;;7.12;nan
62800;BME280;48842;51.046;13.796;2024-03-06T03:09:58;100680.69;;;7.14;nan
62800;BME280;48842;51.046;13.796;2024-03-06T03:12:24;100685.03;;;7.13;nan
62800;BME280;48842;51.046;13.796;2024-03-06T03:14:49;100690.22;;;7.12;nan
62800;BME280;48842;51.046;13.796;2024-03-06T03:17:14;100692.78;;;7.10;nan
62800;BME280;48842;51.046;13.796;2024-03-06T03:19:40;100693.56;;;7.08;nan
62800;BME280;48842;51.046;13.796;2024-03-06T03:22:05;100697.91;;;7.07;nan
62800;BME280;48842;51.046;13.796;2024-03-06T03:24:31;100701.34;;;7.06;nan
62800;BME280;48842;51.046;13.796;2024-03-06T03:26:56;100710.00;;;7.05;nan
62800;BME280;48842;51.046;13.796;2024-03-06T03:29:21;100710.91;;;7.06;nan
62800;BME280;48842;51.046;13.796;2024-03-06T03:31:47;100706.59;;;7.08;nan
62800;BME280;48842;51.046;13.796;2024-03-06T03:34:12;100720.53;;;7.08;nan
62800;BME280;48842;51.046;13.796;2024-03-06T03:36:41;100713.53;;;7.07;nan
62800;BME280;48842;51.046;13.796;2024-03-06T03:39:06;100724.84;;;7.08;nan
62800;BME280;48842;51.046;13.796;2024-03-06T03:41:38;100722.19;;;7.06;nan
62800;BME280;48842;51.046;13.796;2024-03-06T03:44:03;100723.91;;;7.04;nan
62800;BME280;48842;51.046;13.796;2024-03-06T03:46:29;100728.13;;;7.01;nan
62800;BME280;48842;51.046;13.796;2024-03-06T03:48:55;100729.78;;;6.97;nan
62800;BME280;48842;51.046;13.796;2024-03-06T03:51:20;100734.03;;;6.93;nan
62800;BME280;48842;51.046;13.796;2024-03-06T03:53:46;100733.88;;;6.87;nan
62800;BME280;48842;51.046;13.796;2024-03-06T03:56:16;100732.06;;;6.85;nan
62800;BME280;48842;51.046;13.796;2024-03-06T03:58:41;100739.84;;;6.83;nan
62800;BME280;48842;51.046;13.796;2024-03-06T04:01:11;100744.19;;;6.82;nan
62800;BME280;48842;51.046;13.796;2024-03-06T04:03:36;100738.06;;;6.80;nan
62800;BME280;48842;51.046;13.796;2024-03-06T04:06:01;100741.50;;;6.79;nan
62800;BME280;48842;51.046;13.796;2024-03-06T04:08:26;100743.28;;;6.80;nan
62800;BME280;48842;51.046;13.796;2024-03-06T04:10:52;100745.88;;;6.80;nan
62800;BME280;48842;51.046;13.796;2024-03-06T04:13:17;100737.19;;;6.81;nan
62800;BME280;48842;51.046;13.796;2024-03-06T04:15:44;100752.91;;;6.85;nan
62800;BME280;48842;51.046;13.796;2024-03-06T04:18:09;100742.56;;;6.88;nan
62800;BME280;48842;51.046;13.796;2024-03-06T04:20:36;100748.78;;;6.93;nan
62800;BME280;48842;51.046;13.796;2024-03-06T04:23:01;100759.38;;;7.01;nan
62800;BME280;48842;51.046;13.796;2024-03-06T04:25:27;100760.34;;;7.04;nan
62800;BME280;48842;51.046;13.796;2024-03-06T04:27:52;100753.44;;;7.06;nan
62800;BME280;48842;51.046;13.796;2024-03-06T04:30:17;100757.78;;;7.06;nan
62800;BME280;48842;51.046;13.796;2024-03-06T04:32:42;100756.88;;;7.05;nan
62800;BME280;48842;51.046;13.796;2024-03-06T04:35:09;100770.84;;;7.07;nan
62800;BME280;48842;51.046;13.796;2024-03-06T04:37:35;100763.97;;;7.11;nan
62800;BME280;48842;51.046;13.796;2024-03-06T04:40:01;100767.50;;;7.11;nan
62800;BME280;48842;51.046;13.796;2024-03-06T04:42:26;100767.44;;;7.10;nan
62800;BME280;48842;51.046;13.796;2024-03-06T04:44:51;100770.03;;;7.08;nan
62800;BME280;48842;51.046;13.796;2024-03-06T04:47:16;100767.31;;;7.05;nan
62800;BME280;48842;51.046;13.796;2024-03-06T04:49:42;100776.81;;;7.03;nan
62800;BME280;48842;51.046;13.796;2024-03-06T04:52:07;100779.41;;;7.03;nan
62800;BME280;48842;51.046;13.796;2024-03-06T04:54:34;100779.41;;;7.03;nan
62800;BME280;48842;51.046;13.796;2024-03-06T04:56:59;100788.06;;;7.02;nan
62800;BME280;48842;51.046;13.796;2024-03-06T04:59:25;100786.31;;;7.01;nan
62800;BME280;48842;51.046;13.796;2024-03-06T05:01:51;100792.28;;;6.97;nan
62800;BME280;48842;51.046;13.796;2024-03-06T05:04:16;100793.97;;;6.95;nan
62800;BME280;48842;51.046;13.796;2024-03-06T05:06:43;100793.84;;;6.90;nan
62800;BME280;48842;51.046;13.796;2024-03-06T05:09:08;100794.56;;;6.85;nan
62800;BME280;48842;51.046;13.796;2024-03-06T05:11:37;100784.81;;;6.77;nan
62800;BME280;48842;51.046;13.796;2024-03-06T05:14:02;100795.88;;;6.69;nan
62800;BME280;48842;51.046;13.796;2024-03-06T05:16:28;100792.22;;;6.62;nan
62800;BME280;48842;51.046;13.796;2024-03-06T05:18:53;100795.59;;;6.58;nan
62800;BME280;48842;51.046;13.796;2024-03-06T05:21:19;100800.72;;;6.55;nan
62800;BME280;48842;51.046;13.796;2024-03-06T05:23:45;100800.66;;;6.53;nan
62800;BME280;48842;51.046;13.796;2024-03-06T05:26:11;100800.59;;;6.50;nan
62800;BME280;48842;51.046;13.796;2024-03-06T05:28:37;100813.47;;;6.45;nan
62800;BME280;48842;51.046;13.796;2024-03-06T05:31:16;100809.06;;;6.43;nan
62800;BME280;48842;51.046;13.796;2024-03-06T05:33:45;100821.09;;;6.39;nan
62800;BME280;48842;51.046;13.796;2024-03-06T05:36:11;100819.34;;;6.38;nan
62800;BME280;48842;51.046;13.796;2024-03-06T05:38:38;100816.69;;;6.37;nan
62800;BME280;48842;51.046;13.796;2024-03-06T05:41:03;100823.56;;;6.35;nan
62800;BME280;48842;51.046;13.796;2024-03-06T05:43:28;100826.13;;;6.33;nan
62800;BME280;48842;51.046;13.796;2024-03-06T05:45:54;100825.25;;;6.33;nan
62800;BME280;48842;51.046;13.796;2024-03-06T05:48:19;100834.75;;;6.32;nan
62800;BME280;48842;51.046;13.796;2024-03-06T05:50:44;100830.44;;;6.33;nan
62800;BME280;48842;51.046;13.796;2024-03-06T05:53:10;100832.16;;;6.32;nan
62800;BME280;48842;51.046;13.796;2024-03-06T05:55:36;100839.88;;;6.29;nan
62800;BME280;48842;51.046;13.796;2024-03-06T05:58:01;100836.25;;;6.24;nan
62800;BME280;48842;51.046;13.796;2024-03-06T06:00:27;100839.69;;;6.23;nan
62800;BME280;48842;51.046;13.796;2024-03-06T06:02:52;100843.13;;;6.22;nan
62800;BME280;48842;51.046;13.796;2024-03-06T06:05:17;100849.19;;;6.21;nan
62800;BME280;48842;51.046;13.796;2024-03-06T06:07:45;100852.69;;;6.23;nan
62800;BME280;48842;51.046;13.796;2024-03-06T06:10:10;100858.94;;;6.28;nan
62800;BME280;48842;51.046;13.796;2024-03-06T06:12:35;100867.66;;;6.30;nan
62800;BME280;48842;51.046;13.796;2024-03-06T06:15:01;100865.09;;;6.32;nan
62800;BME280;48842;51.046;13.796;2024-03-06T06:17:27;100875.59;;;6.35;nan
62800;BME280;48842;51.046;13.796;2024-03-06T06:19:52;100875.69;;;6.38;nan
62800;BME280;48842;51.046;13.796;2024-03-06T06:22:17;100872.16;;;6.36;nan
62800;BME280;48842;51.046;13.796;2024-03-06T06:24:43;100883.44;;;6.36;nan
62800;BME280;48842;51.046;13.796;2024-03-06T06:27:08;100887.72;;;6.34;nan
62800;BME280;48842;51.046;13.796;2024-03-06T06:29:33;100879.13;;;6.37;nan
62800;BME280;48842;51.046;13.796;2024-03-06T06:31:59;100891.34;;;6.39;nan
62800;BME280;48842;51.046;13.796;2024-03-06T06:34:24;100897.47;;;6.41;nan
62800;BME280;48842;51.046;13.796;2024-03-06T06:36:53;100890.59;;;6.43;nan
62800;BME280;48842;51.046;13.796;2024-03-06T06:39:18;100894.13;;;6.45;nan
62800;BME280;48842;51.046;13.796;2024-03-06T06:41:43;100903.66;;;6.45;nan
62800;BME280;48842;51.046;13.796;2024-03-06T06:44:08;100902.88;;;6.47;nan
62800;BME280;48842;51.046;13.796;2024-03-06T06:46:34;100901.16;;;6.50;nan
62800;BME280;48842;51.046;13.796;2024-03-06T06:48:59;100910.84;;;6.54;nan
62800;BME280;48842;51.046;13.796;2024-03-06T06:51:24;100899.69;;;6.58;nan
62800;BME280;48842;51.046;13.796;2024-03-06T06:53:50;100903.31;;;6.63;nan
62800;BME280;48842;51.046;13.796;2024-03-06T06:56:15;100910.34;;;6.67;nan
62800;BME280;48842;51.046;13.796;2024-03-06T06:58:41;100907.09;;;6.74;nan
62800;BME280;48842;51.046;13.796;2024-03-06T07:01:08;100905.53;;;6.79;nan
62800;BME280;48842;51.046;13.796;2024-03-06T07:03:33;100904.81;;;6.85;nan
62800;BME280;48842;51.046;13.796;2024-03-06T07:05:58;100908.41;;;6.90;nan
62800;BME280;48842;51.046;13.796;2024-03-06T07:08:24;100912.00;;;6.94;nan
62800;BME280;48842;51.046;13.796;2024-03-06T07:10:49;100914.78;;;7.00;nan
62800;BME280;48842;51.046;13.796;2024-03-06T07:13:15;100903.69;;;7.07;nan
62800;BME280;48842;51.046;13.796;2024-03-06T07:15:40;100903.06;;;7.16;nan
62800;BME280;48842;51.046;13.796;2024-03-06T07:18:06;100904.94;;;7.22;nan
62800;BME280;48842;51.046;13.796;2024-03-06T07:20:31;100907.72;;;7.28;nan
62800;BME280;48842;51.046;13.796;2024-03-06T07:22:57;100914.81;;;7.33;nan
62800;BME280;48842;51.046;13.796;2024-03-06T07:25:22;100915.75;;;7.37;nan
62800;BME280;48842;51.046;13.796;2024-03-06T07:27:48;100914.09;;;7.39;nan
62800;BME280;48842;51.046;13.796;2024-03-06T07:30:13;100917.63;;;7.41;nan
62800;BME280;48842;51.046;13.796;2024-03-06T07:32:40;100918.41;;;7.39;nan
62800;BME280;48842;51.046;13.796;2024-03-06T07:35:06;100923.56;;;7.37;nan
62800;BME280;48842;51.046;13.796;2024-03-06T07:37:31;100921.94;;;7.41;nan
62800;BME280;48842;51.046;13.796;2024-03-06T07:39:58;100931.66;;;7.46;nan
62800;BME280;48842;51.046;13.796;2024-03-06T07:42:25;100919.63;;;7.51;nan
62800;BME280;48842;51.046;13.796;2024-03-06T07:44:52;100924.97;;;7.58;nan
62800;BME280;48842;51.046;13.796;2024-03-06T07:47:18;100927.72;;;7.62;nan
62800;BME280;48842;51.046;13.796;2024-03-06T07:49:44;100926.19;;;7.71;nan
62800;BME280;48842;51.046;13.796;2024-03-06T07:52:09;100924.66;;;7.79;nan
62800;BME280;48842;51.046;13.796;2024-03-06T07:54:35;100937.00;;;7.86;nan
62800;BME280;48842;51.046;13.796;2024-03-06T07:57:00;100933.69;;;7.92;nan
62800;BME280;48842;51.046;13.796;2024-03-06T07:59:25;100932.09;;;8.00;nan
62800;BME280;48842;51.046;13.796;2024-03-06T08:01:51;100934.88;;;8.06;nan
62800;BME280;48842;51.046;13.796;2024-03-06T08:04:17;100935.03;;;8.12;nan
62800;BME280;48842;51.046;13.796;2024-03-06T08:06:42;100935.97;;;8.16;nan
62800;BME280;48842;51.046;13.796;2024-03-06T08:09:08;100935.09;;;8.15;nan
62800;BME280;48842;51.046;13.796;2024-03-06T08:11:33;100936.81;;;8.13;nan
62800;BME280;48842;51.046;13.796;2024-03-06T08:13:59;100934.19;;;8.13;nan
62800;BME280;48842;51.046;13.796;2024-03-06T08:16:25;100934.19;;;8.13;nan
62800;BME280;48842;51.046;13.796;2024-03-06T08:18:50;100937.78;;;8.18;nan
62800;BME280;48842;51.046;13.796;2024-03-06T08:21:15;100940.53;;;8.25;nan
62800;BME280;48842;51.046;13.796;2024-03-06T08:23:40;100940.75;;;8.34;nan
62800;BME280;48842;51.046;13.796;2024-03-06T08:26:06;100944.34;;;8.39;nan
62800;BME280;48842;51.046;13.796;2024-03-06T08:28:31;100941.78;;;8.42;nan
62800;BME280;48842;51.046;13.796;2024-03-06T08:30:56;100945.41;;;8.46;nan
62800;BME280;48842;51.046;13.796;2024-03-06T08:33:22;100949.88;;;8.51;nan
62800;BME280;48842;51.046;13.796;2024-03-06T08:35:48;100944.72;;;8.54;nan
62800;BME280;48842;51.046;13.796;2024-03-06T08:38:13;100950.00;;;8.58;nan
62800;BME280;48842;51.046;13.796;2024-03-06T08:40:38;100946.69;;;8.65;nan
62800;BME280;48842;51.046;13.796;2024-03-06T08:43:04;100945.97;;;8.72;nan
62800;BME280;48842;51.046;13.796;2024-03-06T08:45:29;100949.53;;;8.77;nan
62800;BME280;48842;51.046;13.796;2024-03-06T08:47:54;100947.00;;;8.80;nan
62800;BME280;48842;51.046;13.796;2024-03-06T08:50:20;100940.13;;;8.84;nan
62800;BME280;48842;51.046;13.796;2024-03-06T08:52:46;100940.28;;;8.91;nan
62800;BME280;48842;51.046;13.796;2024-03-06T08:55:12;100936.97;;;9.00;nan
62800;BME280;48842;51.046;13.796;2024-03-06T08:57:38;100940.63;;;9.08;nan
62800;BME280;48842;51.046;13.796;2024-03-06T09:00:04;100947.75;;;9.17;nan
62800;BME280;48842;51.046;13.796;2024-03-06T09:02:33;100947.88;;;9.23;nan
62800;BME280;48842;51.046;13.796;2024-03-06T09:04:59;100955.78;;;9.28;nan
62800;BME280;48842;51.046;13.796;2024-03-06T09:07:24;100944.59;;;9.35;nan
62800;BME280;48842;51.046;13.796;2024-03-06T09:09:50;100950.88;;;9.43;nan
62800;BME280;48842;51.046;13.796;2024-03-06T09:12:17;100950.97;;;9.50;nan
62800;BME280;48842;51.046;13.796;2024-03-06T09:14:43;100953.66;;;9.54;nan
62800;BME280;48842;51.046;13.796;2024-03-06T09:17:08;100952.88;;;9.58;nan
62800;BME280;48842;51.046;13.796;2024-03-06T09:19:39;100953.91;;;9.67;nan
62800;BME280;48842;51.046;13.796;2024-03-06T09:22:05;100950.59;;;9.77;nan
62800;BME280;48842;51.046;13.796;2024-03-06T09:24:30;100946.41;;;9.88;nan
62800;BME280;48842;51.046;13.796;2024-03-06T09:26:55;100954.47;;;10.01;nan
62800;BME280;48842;51.046;13.796;2024-03-06T09:29:20;100957.22;;;10.10;nan
62800;BME280;48842;51.046;13.796;2024-03-06T09:31:47;100953.91;;;10.20;nan
62800;BME280;48842;51.046;13.796;2024-03-06T09:34:13;100957.53;;;10.30;nan
62800;BME280;48842;51.046;13.796;2024-03-06T09:36:40;100953.38;;;10.40;nan
62800;BME280;48842;51.046;13.796;2024-03-06T09:39:08;100954.31;;;10.46;nan
62800;BME280;48842;51.046;13.796;2024-03-06T09:41:34;100957.88;;;10.50;nan
62800;BME280;48842;51.046;13.796;2024-03-06T09:43:59;100960.56;;;10.56;nan
62800;BME280;48842;51.046;13.796;2024-03-06T09:46:25;100961.50;;;10.61;nan
62800;BME280;48842;51.046;13.796;2024-03-06T09:48:52;100963.28;;;10.62;nan
62800;BME280;48842;51.046;13.796;2024-03-06T09:51:18;100967.63;;;10.60;nan
62800;BME280;48842;51.046;13.796;2024-03-06T09:53:46;100972.81;;;10.57;nan
62800;BME280;48842;51.046;13.796;2024-03-06T09:56:14;100968.47;;;10.58;nan
62800;BME280;48842;51.046;13.796;2024-03-06T09:58:40;100974.59;;;10.61;nan
62800;BME280;48842;51.046;13.796;2024-03-06T10:01:05;100976.44;;;10.67;nan
62800;BME280;48842;51.046;13.796;2024-03-06T10:03:36;100972.97;;;10.70;nan
62800;BME280;48842;51.046;13.796;2024-03-06T10:06:02;100968.78;;;10.82;nan
62800;BME280;48842;51.046;13.796;2024-03-06T10:08:27;100964.56;;;10.94;nan
62800;BME280;48842;51.046;13.796;2024-03-06T10:10:53;100969.84;;;10.95;nan
62800;BME280;48842;51.046;13.796;2024-03-06T10:13:23;100974.16;;;10.93;nan
62800;BME280;48842;51.046;13.796;2024-03-06T10:15:59;100971.50;;;10.90;nan
62800;BME280;48842;51.046;13.796;2024-03-06T10:18:29;100973.16;;;10.82;nan
62800;BME280;48842;51.046;13.796;2024-03-06T10:20:56;100972.19;;;10.75;nan
62800;BME280;48842;51.046;13.796;2024-03-06T10:23:22;100972.13;;;10.69;nan
62800;BME280;48842;51.046;13.796;2024-03-06T10:25:49;100973.75;;;10.62;nan
62800;BME280;48842;51.046;13.796;2024-03-06T10:28:19;100969.38;;;10.63;nan
62800;BME280;48842;51.046;13.796;2024-03-06T10:30:44;100974.63;;;10.63;nan
62800;BME280;48842;51.046;13.796;2024-03-06T10:33:14;100972.97;;;10.70;nan
62800;BME280;48842;51.046;13.796;2024-03-06T10:35:41;100968.78;;;10.82;nan
62800;BME280;48842;51.046;13.796;2024-03-06T10:38:08;100969.06;;;11.04;nan
62800;BME280;48842;51.046;13.796;2024-03-06T10:40:36;100976.28;;;11.25;nan
62800;BME280;48842;51.046;13.796;2024-03-06T10:43:03;100974.78;;;11.46;nan
62800;BME280;48842;51.046;13.796;2024-03-06T10:45:50;100975.72;;;11.51;nan
62800;BME280;48842;51.046;13.796;2024-03-06T10:48:17;100985.38;;;11.53;nan
62800;BME280;48842;51.046;13.796;2024-03-06T10:50:44;100981.88;;;11.56;nan
62800;BME280;48842;51.046;13.796;2024-03-06T10:53:11;100981.00;;;11.56;nan
62800;BME280;48842;51.046;13.796;2024-03-06T10:55:38;100978.41;;;11.57;nan
62800;BME280;48842;51.046;13.796;2024-03-06T10:58:07;100981.13;;;11.69;nan
62800;BME280;48842;51.046;13.796;2024-03-06T11:00:35;100981.34;;;11.91;nan
62800;BME280;48842;51.046;13.796;2024-03-06T11:03:07;100982.50;;;12.18;nan
62800;BME280;48842;51.046;13.796;2024-03-06T11:05:36;100989.63;;;12.39;nan
62800;BME280;48842;51.046;13.796;2024-03-06T11:08:11;100991.44;;;12.49;nan
62800;BME280;48842;51.046;13.796;2024-03-06T11:10:42;100981.88;;;12.56;nan
62800;BME280;48842;51.046;13.796;2024-03-06T11:15:42;100984.44;;;12.48;nan
62800;BME280;48842;51.046;13.796;2024-03-06T11:21:44;100980.16;;;12.66;nan
62800;BME280;48842;51.046;13.796;2024-03-06T11:24:31;100982.88;;;12.81;nan
62800;BME280;48842;51.046;13.796;2024-03-06T11:27:00;100985.56;;;12.93;nan
62800;BME280;48842;51.046;13.796;2024-03-06T11:32:37;100985.66;;;13.10;nan
62800;BME280;48842;51.046;13.796;2024-03-06T11:35:04;100982.16;;;13.16;nan
62800;BME280;48842;51.046;13.796;2024-03-06T11:37:33;100985.72;;;13.23;nan
62800;BME280;48842;51.046;13.796;2024-03-06T11:40:00;100989.22;;;13.28;nan
62800;BME280;48842;51.046;13.796;2024-03-06T11:42:34;100986.56;;;13.22;nan
62800;BME280;48842;51.046;13.796;2024-03-06T11:45:12;100990.91;;;13.15;nan
62800;BME280;48842;51.046;13.796;2024-03-06T11:47:56;100987.34;;;12.99;nan
62800;BME280;48842;51.046;13.796;2024-03-06T11:50:21;101000.41;;;12.78;nan
62800;BME280;48842;51.046;13.796;2024-03-06T11:52:47;101005.53;;;12.59;nan
62800;BME280;48842;51.046;13.796;2024-03-06T11:55:12;101007.19;;;12.45;nan
62800;BME280;48842;51.046;13.796;2024-03-06T11:57:38;100997.50;;;12.36;nan
62800;BME280;48842;51.046;13.796;2024-03-06T12:00:04;101004.38;;;12.21;nan
62800;BME280;48842;51.046;13.796;2024-03-06T12:02:32;101008.63;;;12.04;nan
62800;BME280;48842;51.046;13.796;2024-03-06T12:05:01;101006.69;;;11.86;nan
62800;BME280;48842;51.046;13.796;2024-03-06T12:07:27;101011.00;;;11.84;nan
62800;BME280;48842;51.046;13.796;2024-03-06T12:09:53;101003.22;;;11.90;nan
62800;BME280;48842;51.046;13.796;2024-03-06T12:12:18;101011.19;;;11.96;nan
62800;BME280;48842;51.046;13.796;2024-03-06T12:14:43;101013.81;;;11.98;nan
62800;BME280;48842;51.046;13.796;2024-03-06T12:17:20;101006.81;;;12.00;nan
62800;BME280;48842;51.046;13.796;2024-03-06T12:19:45;101015.66;;;12.07;nan
62800;BME280;48842;51.046;13.796;2024-03-06T12:22:11;101011.31;;;12.12;nan
62800;BME280;48842;51.046;13.796;2024-03-06T12:24:37;101009.59;;;12.15;nan
62800;BME280;48842;51.046;13.796;2024-03-06T12:27:07;101009.59;;;12.17;nan
62800;BME280;48842;51.046;13.796;2024-03-06T12:29:34;101002.59;;;12.16;nan
62800;BME280;48842;51.046;13.796;2024-03-06T12:32:01;101009.59;;;12.14;nan
62800;BME280;48842;51.046;13.796;2024-03-06T12:34:26;100999.97;;;12.16;nan
62800;BME280;48842;51.046;13.796;2024-03-06T12:36:51;101008.78;;;12.24;nan
62800;BME280;48842;51.046;13.796;2024-03-06T12:39:17;101007.09;;;12.32;nan
62800;BME280;48842;51.046;13.796;2024-03-06T12:41:51;101004.56;;;12.45;nan
62800;BME280;48842;51.046;13.796;2024-03-06T12:44:19;101003.75;;;12.52;nan
62800;BME280;48842;51.046;13.796;2024-03-06T12:46:44;101008.13;;;12.53;nan
62800;BME280;48842;51.046;13.796;2024-03-06T12:49:10;101001.00;;;12.36;nan
62800;BME280;48842;51.046;13.796;2024-03-06T12:51:35;101000.06;;;12.27;nan
62800;BME280;48842;51.046;13.796;2024-03-06T12:54:14;100990.44;;;12.30;nan
62800;BME280;48842;51.046;13.796;2024-03-06T12:56:39;101008.00;;;12.34;nan
62800;BME280;48842;51.046;13.796;2024-03-06T12:59:06;101003.59;;;12.33;nan
62800;BME280;48842;51.046;13.796;2024-03-06T13:01:32;100999.28;;;12.40;nan
62800;BME280;48842;51.046;13.796;2024-03-06T13:03:57;100996.75;;;12.58;nan
62800;BME280;48842;51.046;13.796;2024-03-06T13:06:23;100996.91;;;12.86;nan
62800;BME280;48842;51.046;13.796;2024-03-06T13:08:48;100999.72;;;13.16;nan
62800;BME280;48842;51.046;13.796;2024-03-06T13:11:13;100987.53;;;13.42;nan